createdAt,value
2023-05-11T00:01:44.520Z,14.84
2023-05-11T00:06:37.499Z,14.36
2023-05-11T00:09:04.111Z,14.39
2023-05-11T00:11:31.029Z,14.45
2023-05-11T00:13:57.515Z,14.41
2023-05-11T00:16:24.099Z,14.03
2023-05-11T00:18:50.673Z,14.14
2023-05-11T00:21:17.193Z,14.13
2023-05-11T00:23:43.694Z,14.34
2023-05-11T00:26:10.833Z,14.22
2023-05-11T00:28:37.369Z,14.58
2023-05-11T00:31:03.881Z,14.49
2023-05-11T00:33:30.499Z,13.88
2023-05-11T00:35:57.115Z,13.67
2023-05-11T00:38:23.672Z,14.02
2023-05-11T00:40:50.999Z,14.21
2023-05-11T00:43:17.470Z,14.47
2023-05-11T00:45:47.960Z,14.47
2023-05-11T00:48:15.439Z,14.88
2023-05-11T00:50:42.175Z,14.84
2023-05-11T00:53:09.058Z,14.28
2023-05-11T00:55:35.517Z,14.55
2023-05-11T00:58:05.553Z,14.28
2023-05-11T01:00:32.178Z,13.70
2023-05-11T01:03:00.477Z,13.99
2023-05-11T01:05:41.699Z,14.12
2023-05-11T01:08:32.507Z,14.47
2023-05-11T01:11:03.791Z,14.24
2023-05-11T01:13:38.037Z,14.66
2023-05-11T01:16:12.270Z,14.45
2023-05-11T01:18:40.740Z,14.53
2023-05-11T01:21:08.579Z,14.70
2023-05-11T01:24:03.711Z,14.70
2023-05-11T01:27:04.502Z,14.58
2023-05-11T01:29:49.952Z,14.09
2023-05-11T01:32:27.727Z,14.27
2023-05-11T01:35:10.264Z,14.07
2023-05-11T01:37:38.984Z,14.29
2023-05-11T01:40:13.754Z,14.16
2023-05-11T01:42:44.476Z,14.22
2023-05-11T01:45:11.797Z,14.71
2023-05-11T01:47:40.719Z,14.37
2023-05-11T01:50:08.519Z,14.53
2023-05-11T01:52:36.570Z,14.52
2023-05-11T01:55:05.012Z,14.18
2023-05-11T01:57:32.439Z,14.37
2023-05-11T02:00:00.069Z,14.53
2023-05-11T02:02:27.500Z,14.24
2023-05-11T02:04:54.655Z,13.90
2023-05-11T02:07:21.632Z,13.55
2023-05-11T02:09:48.737Z,13.70
2023-05-11T02:12:16.692Z,13.62
2023-05-11T02:14:43.487Z,13.95
2023-05-11T02:17:10.776Z,14.03
2023-05-11T02:19:38.530Z,13.99
2023-05-11T02:22:05.727Z,14.07
2023-05-11T02:24:33.335Z,13.95
2023-05-11T02:26:59.827Z,14.30
2023-05-11T02:29:26.488Z,14.47
2023-05-11T02:31:57.228Z,13.96
2023-05-11T02:34:26.824Z,14.49
2023-05-11T02:36:56.153Z,14.36
2023-05-11T02:39:23.392Z,14.18
2023-05-11T02:41:55.957Z,13.91
2023-05-11T02:44:24.589Z,13.93
2023-05-11T02:46:52.762Z,14.06
2023-05-11T02:49:21.300Z,14.30
2023-05-11T02:51:48.837Z,14.00
2023-05-11T02:54:16.095Z,13.92
2023-05-11T02:56:42.636Z,13.87
2023-05-11T02:59:09.236Z,14.28
2023-05-11T03:01:35.797Z,13.65
2023-05-11T03:04:05.744Z,13.79
2023-05-11T03:06:33.304Z,13.96
2023-05-11T03:09:01.338Z,13.89
2023-05-11T03:11:28.019Z,14.64
2023-05-11T03:13:54.624Z,14.58
2023-05-11T03:16:21.681Z,14.39
2023-05-11T03:18:49.297Z,13.94
2023-05-11T03:21:17.911Z,14.04
2023-05-11T03:23:46.013Z,14.15
2023-05-11T03:26:13.341Z,14.01
2023-05-11T03:28:41.276Z,14.06
2023-05-11T03:31:07.887Z,14.17
2023-05-11T03:33:34.385Z,13.87
2023-05-11T03:36:01.137Z,13.91
2023-05-11T03:38:28.259Z,14.24
2023-05-11T03:40:54.937Z,14.21
2023-05-11T03:43:22.174Z,13.77
2023-05-11T03:45:51.489Z,13.81
2023-05-11T03:48:18.574Z,13.83
2023-05-11T03:50:45.371Z,13.95
2023-05-11T03:53:12.513Z,13.90
2023-05-11T03:55:39.194Z,13.91
2023-05-11T03:58:09.755Z,13.89
2023-05-11T04:00:42.669Z,13.71
2023-05-11T04:03:09.828Z,13.31
2023-05-11T04:05:36.498Z,13.48
2023-05-11T04:08:04.498Z,13.76
2023-05-11T04:10:30.995Z,14.43
2023-05-11T04:12:57.812Z,14.56
2023-05-11T04:15:24.282Z,14.16
2023-05-11T04:17:50.836Z,13.94
2023-05-11T04:20:17.710Z,14.24
2023-05-11T04:22:44.372Z,14.39
2023-05-11T04:25:11.513Z,14.04
2023-05-11T04:27:38.036Z,13.88
2023-05-11T04:30:05.421Z,13.92
2023-05-11T04:32:31.966Z,13.96
2023-05-11T04:34:58.408Z,13.95
2023-05-11T04:37:24.877Z,14.38
2023-05-11T04:39:51.343Z,13.69
2023-05-11T04:42:17.954Z,13.84
2023-05-11T04:44:44.391Z,14.35
2023-05-11T04:47:11.023Z,14.43
2023-05-11T04:49:37.534Z,14.35
2023-05-11T04:52:04.146Z,14.05
2023-05-11T04:54:31.134Z,13.77
2023-05-11T04:56:57.617Z,14.02
2023-05-11T04:59:24.134Z,14.59
2023-05-11T05:01:50.687Z,14.85
2023-05-11T05:04:17.189Z,14.70
2023-05-11T05:06:43.716Z,14.83
2023-05-11T05:09:11.187Z,15.09
2023-05-11T05:11:37.735Z,14.86
2023-05-11T05:14:04.258Z,14.83
2023-05-11T05:16:32.435Z,14.87
2023-05-11T05:19:00.549Z,15.05
2023-05-11T05:21:27.088Z,14.59
2023-05-11T05:23:53.597Z,14.66
2023-05-11T05:26:20.049Z,14.64
2023-05-11T05:28:46.518Z,14.73
2023-05-11T05:31:13.038Z,14.68
2023-05-11T05:33:39.514Z,14.49
2023-05-11T05:36:06.229Z,14.69
2023-05-11T05:38:32.800Z,14.23
2023-05-11T05:40:59.479Z,15.13
2023-05-11T05:43:25.954Z,14.98
2023-05-11T05:45:52.435Z,14.94
2023-05-11T05:48:18.916Z,14.85
2023-05-11T05:50:45.442Z,15.16
2023-05-11T05:53:11.966Z,14.83
2023-05-11T05:55:38.502Z,15.16
2023-05-11T05:58:04.982Z,15.41
2023-05-11T06:00:31.606Z,15.23
2023-05-11T06:02:58.127Z,14.94
2023-05-11T06:05:24.658Z,15.11
2023-05-11T06:08:01.882Z,15.06
2023-05-11T06:10:36.056Z,15.42
2023-05-11T06:13:02.524Z,15.75
2023-05-11T06:15:28.968Z,15.38
2023-05-11T06:17:55.600Z,14.97
2023-05-11T06:20:23.412Z,15.50
2023-05-11T06:22:49.977Z,15.74
2023-05-11T06:25:16.849Z,15.15
2023-05-11T06:27:43.325Z,15.45
2023-05-11T06:30:10.107Z,15.46
2023-05-11T06:32:36.732Z,15.74
2023-05-11T06:35:03.347Z,15.93
2023-05-11T06:37:30.332Z,15.69
2023-05-11T06:39:56.921Z,15.49
2023-05-11T06:42:23.450Z,15.41
2023-05-11T06:44:49.946Z,14.99
2023-05-11T06:47:16.689Z,15.16
2023-05-11T06:49:43.194Z,15.70
2023-05-11T06:52:10.085Z,15.89
2023-05-11T06:54:36.804Z,16.16
2023-05-11T06:57:03.736Z,16.01
2023-05-11T06:59:30.597Z,16.12
2023-05-11T07:01:57.080Z,16.22
2023-05-11T07:04:24.351Z,16.73
2023-05-11T07:06:50.960Z,16.49
2023-05-11T07:09:17.439Z,16.13
2023-05-11T07:11:43.997Z,16.16
2023-05-11T07:14:10.575Z,16.59
2023-05-11T07:16:40.226Z,16.45
2023-05-11T07:19:08.306Z,15.96
2023-05-11T07:21:35.716Z,16.28
2023-05-11T07:24:03.238Z,15.83
2023-05-11T07:26:29.932Z,16.23
2023-05-11T07:28:56.487Z,16.01
2023-05-11T07:31:22.993Z,15.53
2023-05-11T07:33:49.527Z,15.69
2023-05-11T07:36:16.000Z,16.27
2023-05-11T07:38:42.508Z,15.90
2023-05-11T07:41:10.793Z,16.17
2023-05-11T07:43:38.981Z,16.49
2023-05-11T07:46:05.719Z,15.94
2023-05-11T07:48:32.219Z,16.15
2023-05-11T07:50:58.767Z,15.91
2023-05-11T07:53:25.317Z,16.27
2023-05-11T07:55:51.775Z,16.29
2023-05-11T07:58:18.381Z,16.61
2023-05-11T08:00:44.836Z,16.47
2023-05-11T08:03:11.364Z,16.55
2023-05-11T08:05:38.059Z,16.01
2023-05-11T08:08:05.318Z,16.29
2023-05-11T08:10:32.017Z,15.98
2023-05-11T08:12:59.270Z,16.21
2023-05-11T08:15:26.374Z,16.53
2023-05-11T08:17:53.834Z,16.66
2023-05-11T08:20:20.423Z,16.35
2023-05-11T08:22:47.011Z,16.57
2023-05-11T08:25:13.852Z,16.17
2023-05-11T08:27:40.577Z,16.31
2023-05-11T08:30:10.124Z,16.77
2023-05-11T08:32:54.489Z,16.37
2023-05-11T08:35:24.845Z,15.75
2023-05-11T08:37:51.333Z,16.18
2023-05-11T08:40:19.520Z,16.43
2023-05-11T08:42:46.931Z,15.96
2023-05-11T08:45:13.510Z,16.13
2023-05-11T08:47:40.101Z,16.26
2023-05-11T08:50:06.986Z,16.43
2023-05-11T08:52:34.503Z,16.62
2023-05-11T08:55:01.121Z,16.45
2023-05-11T08:57:32.135Z,16.04
2023-05-11T09:00:00.447Z,16.02
2023-05-11T09:02:27.424Z,15.79
2023-05-11T09:04:54.765Z,16.36
2023-05-11T09:07:22.317Z,16.27
2023-05-11T09:09:48.972Z,16.59
2023-05-11T09:12:16.726Z,16.73
2023-05-11T09:14:43.358Z,17.09
2023-05-11T09:17:09.949Z,16.71
2023-05-11T09:19:36.478Z,17.15
2023-05-11T09:22:05.396Z,17.03
2023-05-11T09:24:32.435Z,17.15
2023-05-11T09:29:53.027Z,17.01
2023-05-11T09:32:19.489Z,17.18
2023-05-11T09:34:46.277Z,16.32
2023-05-11T09:37:19.396Z,16.87
2023-05-11T09:40:28.249Z,16.74
2023-05-11T09:42:32.431Z,16.50
2023-05-11T09:44:58.869Z,16.29
2023-05-11T09:47:25.388Z,16.55
2023-05-11T09:49:52.007Z,16.41
2023-05-11T09:52:21.027Z,16.67
2023-05-11T09:54:50.662Z,16.31
2023-05-11T09:57:30.688Z,16.30
2023-05-11T09:59:58.946Z,16.26
2023-05-11T10:02:30.612Z,16.01
2023-05-11T10:04:58.623Z,16.34
2023-05-11T10:07:28.713Z,16.27
2023-05-11T10:09:59.337Z,16.63
2023-05-11T10:12:27.347Z,16.73
2023-05-11T10:15:07.658Z,16.49
2023-05-11T10:17:35.106Z,16.44
2023-05-11T10:20:02.144Z,16.37
2023-05-11T10:22:29.359Z,16.74
2023-05-11T10:24:59.740Z,16.66
2023-05-11T10:27:27.083Z,16.60
2023-05-11T10:29:53.943Z,16.49
2023-05-11T10:32:22.699Z,16.30
2023-05-11T10:34:50.722Z,16.67
2023-05-11T10:37:17.652Z,16.54
2023-05-11T10:39:48.444Z,16.44
2023-05-11T10:42:42.781Z,16.36
2023-05-11T10:45:24.846Z,16.84
2023-05-11T10:48:10.100Z,16.55
2023-05-11T10:51:02.561Z,16.26
2023-05-11T10:53:35.148Z,16.25
2023-05-11T10:56:20.375Z,16.94
2023-05-11T10:59:14.756Z,17.50
2023-05-11T11:01:42.556Z,16.98
2023-05-11T11:04:13.580Z,16.76
2023-05-11T11:06:44.186Z,16.92
2023-05-11T11:09:15.564Z,16.28
2023-05-11T11:11:46.912Z,16.84
2023-05-11T11:14:15.448Z,16.39
2023-05-11T11:17:17.016Z,16.75
2023-05-11T11:19:43.766Z,16.59
2023-05-11T11:22:35.389Z,16.57
2023-05-11T11:25:06.144Z,16.62
2023-05-11T11:27:41.938Z,16.54
2023-05-11T11:30:18.660Z,16.66
2023-05-11T11:32:46.478Z,16.77
2023-05-11T11:35:47.393Z,16.59
2023-05-11T11:38:16.457Z,16.93
2023-05-11T11:40:52.713Z,16.96
2023-05-11T11:43:28.445Z,17.26
2023-05-11T11:46:02.701Z,17.33
2023-05-11T11:48:36.555Z,17.13
2023-05-11T11:51:06.722Z,16.93
2023-05-11T11:53:36.444Z,17.44
2023-05-11T11:56:15.562Z,17.46
2023-05-11T11:58:42.479Z,17.59
2023-05-11T12:01:13.589Z,17.56
2023-05-11T12:03:44.073Z,17.11
2023-05-11T12:06:12.189Z,17.78
2023-05-11T12:08:39.854Z,17.16
2023-05-11T12:11:07.049Z,17.33
2023-05-11T12:13:34.740Z,18.09
2023-05-11T12:16:10.462Z,18.45
2023-05-11T12:18:37.063Z,17.92
2023-05-11T12:21:03.719Z,17.79
2023-05-11T12:23:30.408Z,18.29
2023-05-11T12:26:04.238Z,18.78
2023-05-11T12:28:30.728Z,18.84
2023-05-11T12:30:59.136Z,18.75
2023-05-11T12:33:27.168Z,18.41
2023-05-11T12:35:54.948Z,18.79
2023-05-11T12:38:21.615Z,18.29
2023-05-11T12:40:53.116Z,19.01
2023-05-11T12:43:20.907Z,19.50
2023-05-11T12:45:47.789Z,18.86
2023-05-11T12:48:15.136Z,19.19
2023-05-11T12:50:42.749Z,18.99
2023-05-11T12:53:14.465Z,19.19
2023-05-11T12:55:41.577Z,19.72
2023-05-11T12:58:15.359Z,19.02
2023-05-11T13:00:55.690Z,19.12
2023-05-11T13:03:23.029Z,20.01
2023-05-11T13:05:49.993Z,20.68
2023-05-11T13:08:19.067Z,20.25
2023-05-11T13:10:47.748Z,20.85
2023-05-11T13:13:27.615Z,20.59
2023-05-11T13:15:54.919Z,20.29
2023-05-11T13:18:23.238Z,20.41
2023-05-11T13:21:05.126Z,20.94
2023-05-11T13:23:31.814Z,20.69
2023-05-11T13:25:58.323Z,20.80
2023-05-11T13:28:25.194Z,21.10
2023-05-11T13:30:58.059Z,20.72
2023-05-11T13:33:24.566Z,21.04
2023-05-11T13:35:51.098Z,20.94
2023-05-11T13:38:17.595Z,20.57
2023-05-11T13:40:44.035Z,19.85
2023-05-11T13:43:10.730Z,20.60
2023-05-11T13:45:40.070Z,19.75
2023-05-11T13:48:07.107Z,19.75
2023-05-11T13:50:33.597Z,19.81
2023-05-11T13:53:00.160Z,19.98
2023-05-11T13:55:28.183Z,20.49
2023-05-11T13:57:54.765Z,20.71
2023-05-11T14:00:21.453Z,21.60
2023-05-11T14:02:50.496Z,21.41
2023-05-11T14:05:17.598Z,21.13
2023-05-11T14:07:48.189Z,20.92
2023-05-11T14:10:16.276Z,21.04
2023-05-11T14:12:42.828Z,21.32
2023-05-11T14:15:10.048Z,20.95
2023-05-11T14:17:36.777Z,20.94
2023-05-11T14:20:04.230Z,21.19
2023-05-11T14:22:30.913Z,21.01
2023-05-11T14:24:57.363Z,21.31
2023-05-11T14:27:23.937Z,21.97
2023-05-11T14:29:52.176Z,21.59
2023-05-11T14:32:19.523Z,21.15
2023-05-11T14:34:46.610Z,21.01
2023-05-11T14:37:13.350Z,20.77
2023-05-11T14:39:41.170Z,20.70
2023-05-11T14:42:08.946Z,20.88
2023-05-11T14:44:35.482Z,20.59
2023-05-11T14:47:02.018Z,20.42
2023-05-11T14:49:28.853Z,20.45
2023-05-11T14:51:55.557Z,20.62
2023-05-11T14:54:22.029Z,20.39
2023-05-11T14:56:53.741Z,19.80
2023-05-11T14:59:21.314Z,19.47
2023-05-11T15:01:49.608Z,20.33
2023-05-11T15:04:16.843Z,19.34
2023-05-11T15:06:43.778Z,19.33
2023-05-11T15:09:10.291Z,19.30
2023-05-11T15:11:39.617Z,19.81
2023-05-11T15:14:07.123Z,19.34
2023-05-11T15:16:33.742Z,19.11
2023-05-11T15:19:00.575Z,19.07
2023-05-11T15:21:27.531Z,18.83
2023-05-11T15:23:54.354Z,19.26
2023-05-11T15:26:22.167Z,19.06
2023-05-11T15:28:48.978Z,18.78
2023-05-11T15:31:15.540Z,19.00
2023-05-11T15:33:42.539Z,18.60
2023-05-11T15:36:13.541Z,18.53
2023-05-11T15:38:40.542Z,18.60
2023-05-11T15:41:07.836Z,18.85
2023-05-11T15:43:34.780Z,18.58
2023-05-11T15:46:03.608Z,18.81
2023-05-11T15:48:30.383Z,18.81
2023-05-11T15:50:58.815Z,18.72
2023-05-11T15:53:25.470Z,18.84
2023-05-11T15:55:55.403Z,18.77
2023-05-11T15:58:22.241Z,18.86
2023-05-11T16:00:49.149Z,18.26
2023-05-11T16:03:15.978Z,18.40
2023-05-11T16:05:42.539Z,18.37
2023-05-11T16:08:08.970Z,17.91
2023-05-11T16:10:35.447Z,18.40
2023-05-11T16:13:01.895Z,17.64
2023-05-11T16:15:29.453Z,17.89
2023-05-11T16:17:56.041Z,17.85
2023-05-11T16:20:22.644Z,18.52
2023-05-11T16:22:49.099Z,18.30
2023-05-11T16:25:16.150Z,17.99
2023-05-11T16:27:42.629Z,17.78
2023-05-11T16:30:22.217Z,17.81
2023-05-11T16:32:51.124Z,18.07
2023-05-11T16:35:17.731Z,17.56
2023-05-11T16:37:44.197Z,17.83
2023-05-11T16:40:10.956Z,18.21
2023-05-11T16:42:37.542Z,17.59
2023-05-11T16:45:04.907Z,17.57
2023-05-11T16:47:31.528Z,17.47
2023-05-11T16:49:58.182Z,17.25
2023-05-11T16:52:24.796Z,17.46
2023-05-11T16:54:51.322Z,17.37
2023-05-11T16:57:17.804Z,17.56
2023-05-11T16:59:44.400Z,17.65
2023-05-11T17:02:11.143Z,17.99
2023-05-11T17:04:37.684Z,17.79
2023-05-11T17:07:04.327Z,17.71
2023-05-11T17:09:31.046Z,17.59
2023-05-11T17:11:57.555Z,18.14
2023-05-11T17:14:24.087Z,18.10
2023-05-11T17:16:50.955Z,18.41
2023-05-11T17:19:18.095Z,18.21
2023-05-11T17:21:44.677Z,18.13
2023-05-11T17:24:11.269Z,18.24
2023-05-11T17:26:47.947Z,18.38
2023-05-11T17:29:16.565Z,18.06
2023-05-11T17:31:43.432Z,18.55
2023-05-11T17:34:10.780Z,18.49
2023-05-11T17:36:37.589Z,18.40
2023-05-11T17:39:05.091Z,18.67
2023-05-11T17:41:31.987Z,18.43
2023-05-11T17:43:58.450Z,18.53
2023-05-11T17:46:25.303Z,18.71
2023-05-11T17:48:53.005Z,18.34
2023-05-11T17:51:20.343Z,18.46
2023-05-11T17:53:47.804Z,18.50
2023-05-11T17:56:16.072Z,18.59
2023-05-11T17:58:46.539Z,18.82
2023-05-11T18:01:16.970Z,18.63
2023-05-11T18:03:43.824Z,18.54
2023-05-11T18:06:10.636Z,18.37
2023-05-11T18:08:37.719Z,18.51
2023-05-11T18:11:05.535Z,18.32
2023-05-11T18:13:32.080Z,18.30
2023-05-11T18:16:00.345Z,18.32
2023-05-11T18:18:27.031Z,18.20
2023-05-11T18:20:54.124Z,18.37
2023-05-11T18:23:21.182Z,18.15
2023-05-11T18:25:48.464Z,17.81
2023-05-11T18:28:14.954Z,17.99
2023-05-11T18:30:41.422Z,17.60
2023-05-11T18:33:08.466Z,17.80
2023-05-11T18:35:35.184Z,17.56
2023-05-11T18:38:04.153Z,17.57
2023-05-11T18:40:30.613Z,17.52
2023-05-11T18:42:57.588Z,17.56
2023-05-11T18:45:24.103Z,17.33
2023-05-11T18:47:51.065Z,17.53
2023-05-11T18:50:17.778Z,17.57
2023-05-11T18:52:44.753Z,17.38
2023-05-11T18:55:11.300Z,17.40
2023-05-11T18:57:39.993Z,17.23
2023-05-11T19:00:07.080Z,17.22
2023-05-11T19:02:34.038Z,17.21
2023-05-11T19:05:00.559Z,17.38
2023-05-11T19:07:27.024Z,17.31
2023-05-11T19:09:53.789Z,17.48
2023-05-11T19:12:20.300Z,17.27
2023-05-11T19:14:47.521Z,17.39
2023-05-11T19:17:14.192Z,17.29
2023-05-11T19:19:40.659Z,17.07
2023-05-11T19:22:09.074Z,17.00
2023-05-11T19:24:35.923Z,17.23
2023-05-11T19:27:07.704Z,16.90
2023-05-11T19:29:35.443Z,16.84
2023-05-11T19:32:02.320Z,16.91
2023-05-11T19:34:28.993Z,16.89
2023-05-11T19:36:55.475Z,17.08
2023-05-11T19:39:21.990Z,16.82
2023-05-11T19:41:48.511Z,16.87
2023-05-11T19:44:15.155Z,16.98
2023-05-11T19:46:46.455Z,16.72
2023-05-11T19:49:15.011Z,17.07
2023-05-11T19:51:42.159Z,16.76
2023-05-11T19:54:08.648Z,16.57
2023-05-11T19:56:35.150Z,16.56
2023-05-11T19:59:02.704Z,16.63
2023-05-11T20:01:29.217Z,16.72
2023-05-11T20:03:56.292Z,16.66
2023-05-11T20:06:22.987Z,16.63
2023-05-11T20:08:51.549Z,16.57
2023-05-11T20:11:18.344Z,16.84
2023-05-11T20:13:46.835Z,16.40
2023-05-11T20:16:13.779Z,16.48
2023-05-11T20:18:40.432Z,16.46
2023-05-11T20:21:07.088Z,16.55
2023-05-11T20:23:35.185Z,16.57
2023-05-11T20:26:07.687Z,16.21
2023-05-11T20:28:34.150Z,16.22
2023-05-11T20:31:03.062Z,16.26
2023-05-11T20:36:00.954Z,16.39
2023-05-11T20:38:27.489Z,16.17
2023-05-11T20:41:00.441Z,16.42
2023-05-11T20:43:27.232Z,16.12
2023-05-11T20:45:54.370Z,16.03
2023-05-11T20:48:32.395Z,16.29
2023-05-11T20:51:05.492Z,16.20
2023-05-11T20:53:32.072Z,16.23
2023-05-11T20:55:58.808Z,16.52
2023-05-11T20:58:26.264Z,16.47
2023-05-11T21:00:53.300Z,16.49
2023-05-11T21:03:20.088Z,16.48
2023-05-11T21:05:46.742Z,16.41
2023-05-11T21:08:15.080Z,16.69
2023-05-11T21:10:42.045Z,16.78
2023-05-11T21:13:08.970Z,16.34
2023-05-11T21:15:35.978Z,16.39
2023-05-11T21:18:02.636Z,16.58
2023-05-11T21:20:29.223Z,16.34
2023-05-11T21:22:55.847Z,16.84
2023-05-11T21:25:22.320Z,16.84
2023-05-11T21:27:48.822Z,16.85
2023-05-11T21:30:15.317Z,16.39
2023-05-11T21:32:41.903Z,16.83
2023-05-11T21:35:08.972Z,16.60
2023-05-11T21:37:36.441Z,17.13
2023-05-11T21:40:03.224Z,16.94
2023-05-11T21:42:34.602Z,17.19
2023-05-11T21:45:02.052Z,17.01
2023-05-11T21:47:28.911Z,16.85
2023-05-11T21:49:55.451Z,17.06
2023-05-11T21:52:21.898Z,17.14
2023-05-11T21:54:48.416Z,17.35
2023-05-11T21:57:15.656Z,17.00
2023-05-11T21:59:42.154Z,17.05
2023-05-11T22:02:08.860Z,16.92
2023-05-11T22:04:35.614Z,17.07
2023-05-11T22:07:02.069Z,17.13
2023-05-11T22:09:28.573Z,17.13
2023-05-11T22:11:55.037Z,16.92
2023-05-11T22:14:24.135Z,17.03
2023-05-11T22:16:50.645Z,16.94
2023-05-11T22:19:17.184Z,17.14
2023-05-11T22:21:43.661Z,16.94
2023-05-11T22:24:10.621Z,16.68
2023-05-11T22:26:37.060Z,16.61
2023-05-11T22:29:04.075Z,16.71
2023-05-11T22:31:30.558Z,16.88
2023-05-11T22:33:58.346Z,16.71
2023-05-11T22:36:24.863Z,16.87
2023-05-11T22:38:51.384Z,16.72
2023-05-11T22:41:17.856Z,17.02
2023-05-11T22:43:44.381Z,17.00
2023-05-11T22:46:10.985Z,16.97
2023-05-11T22:48:37.534Z,16.62
2023-05-11T22:51:06.236Z,16.83
2023-05-11T22:53:32.820Z,16.91
2023-05-11T22:56:09.269Z,16.78
2023-05-11T22:58:35.797Z,16.86
2023-05-11T23:01:02.311Z,17.04
2023-05-11T23:03:29.027Z,16.60
2023-05-11T23:05:55.622Z,16.90
2023-05-11T23:08:22.978Z,16.66
2023-05-11T23:10:50.470Z,16.65
2023-05-11T23:13:17.631Z,16.67
2023-05-11T23:15:44.120Z,16.50
2023-05-11T23:18:10.719Z,16.52
2023-05-11T23:20:37.286Z,16.44
2023-05-11T23:23:03.862Z,16.60
2023-05-11T23:25:30.541Z,16.39
2023-05-11T23:27:56.993Z,16.68
2023-05-11T23:30:23.661Z,16.94
2023-05-11T23:32:50.202Z,16.79
2023-05-11T23:35:16.653Z,16.59
2023-05-11T23:37:43.130Z,16.38
2023-05-11T23:40:10.089Z,16.71
2023-05-11T23:42:36.874Z,16.51
2023-05-11T23:45:04.334Z,16.71
2023-05-11T23:47:34.033Z,16.72
2023-05-11T23:50:00.826Z,16.18
2023-05-11T23:52:27.289Z,16.68
2023-05-11T23:54:53.836Z,16.22
2023-05-11T23:57:20.334Z,16.78
2023-05-11T23:59:46.917Z,16.59
